アテネ の空港の天気 - METARとTAF

アテネ国際空港 ( LGAV / ATH ) - ギリシャ アテネ
飛行場実況気象(Metar)
観測時間02/18 00:50 EET (02/17 22:50 UTC)
風向・風速不定 1m/s
視程10km以上
天気現象
少しの雲 雲底高度 1220m
気温2℃
湿度87%
気圧1025hPa
METARLGAV 172250Z VRB01KT 9999 FEW040 02/M00 Q1025 NOSIG
過去の天気等 Google飛行場航空写真 Wunderground天気予報

過去48時間のMETAR

飛行場予報(TAF)
発表時間: 2/17 19:00 EET (2/17 17:00 UTC)
予報対象時間: 17日20時 EET ~ 18日20時 EET
風向・風速北北東 8m/s
視程10km以上
全天の4割程度の雲 雲底高度 1220m
17日21時 EET ~ 17日23時 EET に徐々に
風向・風速北北西 5m/s
少しの雲 雲底高度 610m
TAF LGAV 171700Z 1718/1818 03016KT 9999 SCT040
BECMG 1719/1721 33010KT FEW020